Time;durP1;ratioP1;P1;durP2;ratioP2;P2;SDS_P1;SDS_P2;PMS_P1;PMS_P2;Temp;Humidity;BMP_temperature;BMP_pressure;BME280_temperature;BME280_humidity;BME280_pressure;Samples;Min_cycle;Max_cycle;Signal;HPM_P1;HPM_P2
2022/06/14 00:01:06;;;;;;;5.30;2.13;;;12.60;77.30;;;;;;5052988;28;20024;-50
2022/06/14 00:03:43;;;;;;;5.38;2.53;;;12.60;77.20;;;;;;5053097;28;20053;-48
2022/06/14 00:06:20;;;;;;;8.68;3.78;;;12.40;77.90;;;;;;5053159;28;20028;-48
2022/06/14 00:08:47;;;;;;;10.70;2.47;;;12.30;78.20;;;;;;5053373;28;20420;-51
2022/06/14 00:11:19;;;;;;;8.77;2.13;;;12.40;78.40;;;;;;5053460;28;20036;-48
2022/06/14 00:13:45;;;;;;;7.43;2.55;;;12.30;78.50;;;;;;5052931;28;20078;-48
2022/06/14 00:16:12;;;;;;;5.93;2.20;;;12.30;78.50;;;;;;5053343;28;20025;-48
2022/06/14 00:18:38;;;;;;;5.65;2.10;;;12.30;78.80;;;;;;5053298;28;20056;-48
2022/06/14 00:21:05;;;;;;;5.30;1.95;;;12.40;78.60;;;;;;5053218;28;20082;-49
2022/06/14 00:23:31;;;;;;;12.82;3.03;;;12.40;78.60;;;;;;5052924;28;20036;-47
2022/06/14 00:25:58;;;;;;;8.55;2.38;;;12.50;78.50;;;;;;5053152;28;20155;-47
2022/06/14 00:28:26;;;;;;;10.75;3.60;;;12.50;78.30;;;;;;5053104;28;20388;-50
2022/06/14 00:30:55;;;;;;;8.02;2.60;;;12.60;77.90;;;;;;5051535;28;20108;-48
2022/06/14 00:33:21;;;;;;;6.50;2.53;;;12.70;77.10;;;;;;5052756;28;20025;-47
2022/06/14 00:35:47;;;;;;;10.82;2.75;;;12.70;77.00;;;;;;5053210;28;20476;-49
2022/06/14 00:38:14;;;;;;;9.65;2.78;;;12.80;76.70;;;;;;5053038;28;20104;-47
2022/06/14 00:40:48;;;;;;;7.65;2.30;;;12.80;76.70;;;;;;5052760;28;20025;-47
2022/06/14 00:43:16;;;;;;;7.80;2.60;;;12.70;76.90;;;;;;5053043;28;20105;-49
2022/06/14 00:45:42;;;;;;;9.95;2.00;;;12.40;78.10;;;;;;5052854;28;20025;-50
2022/06/14 00:48:22;;;;;;;7.40;2.53;;;12.40;78.20;;;;;;5052844;28;20107;-48
2022/06/14 00:51:03;;;;;;;4.63;2.63;;;12.30;78.30;;;;;;5053095;28;20040;-51
2022/06/14 00:53:40;;;;;;;6.78;1.90;;;12.30;78.70;;;;;;5052806;28;20550;-48
2022/06/14 00:56:22;;;;;;;4.97;2.42;;;12.20;79.60;;;;;;5052926;28;20021;-48
2022/06/14 00:59:08;;;;;;;4.03;2.20;;;12.20;79.30;;;;;;5051624;28;20021;-48
2022/06/14 01:01:37;;;;;;;5.40;2.33;;;12.30;79.30;;;;;;5055764;28;20021;-48
2022/06/14 01:04:11;;;;;;;5.72;2.20;;;12.20;79.10;;;;;;5056542;28;20472;-54
2022/06/14 01:06:55;;;;;;;8.02;2.92;;;12.10;79.40;;;;;;5056593;28;20120;-49
2022/06/14 01:09:33;;;;;;;4.30;2.53;;;12.10;79.80;;;;;;5056671;28;20055;-48
2022/06/14 01:12:04;;;;;;;6.57;2.58;;;12.10;79.80;;;;;;5056385;28;20056;-47
2022/06/14 01:15:20;;;;;;;5.05;2.63;;;12.10;79.90;;;;;;5056076;28;20041;-48
2022/06/14 01:17:50;;;;;;;7.55;2.53;;;12.10;80.00;;;;;;5054158;28;20028;-48
2022/06/14 01:20:17;;;;;;;;;;;12.10;79.80;;;;;;5037760;28;20032;-48
2022/06/14 01:22:43;;;;;;;5.20;2.33;;;11.90;80.10;;;;;;5055146;28;19948;-48
2022/06/14 01:25:09;;;;;;;7.47;1.88;;;12.00;80.30;;;;;;5055979;28;20082;-49
2022/06/14 01:27:37;;;;;;;3.53;2.28;;;12.00;79.80;;;;;;5055904;28;20079;-50
2022/06/14 01:30:30;;;;;;;5.38;2.47;;;12.00;80.10;;;;;;5055787;28;20384;-48
2022/06/14 01:33:19;;;;;;;6.03;2.35;;;12.00;80.30;;;;;;5055323;28;20045;-49
2022/06/14 01:35:50;;;;;;;9.77;2.55;;;11.80;80.50;;;;;;5055547;28;20024;-49
2022/06/14 01:38:17;;;;;;;7.65;4.30;;;11.80;80.90;;;;;;5056168;28;20029;-48
2022/06/14 01:40:57;;;;;;;6.43;3.25;;;11.80;80.90;;;;;;5055429;28;20067;-49
2022/06/14 01:43:50;;;;;;;4.65;2.80;;;11.70;81.30;;;;;;5055743;28;20388;-52
2022/06/14 01:46:25;;;;;;;10.35;2.47;;;11.60;81.50;;;;;;5055853;28;20024;-48
2022/06/14 01:52:36;;;;;;;6.78;2.80;;;11.50;81.70;;;;;;5056152;28;20032;-48
2022/06/14 01:55:13;;;;;;;4.68;2.00;;;11.50;81.70;;;;;;5055701;28;20473;-50
2022/06/14 01:58:01;;;;;;;5.57;3.05;;;11.40;82.30;;;;;;5055881;28;20115;-49
2022/06/14 02:00:40;;;;;;;9.65;3.80;;;11.30;82.40;;;;;;5055994;28;20434;-48
2022/06/14 02:06:11;;;;;;;4.40;2.25;;;11.30;82.50;;;;;;5055365;28;20507;-49
2022/06/14 02:08:51;;;;;;;7.25;2.65;;;11.20;83.20;;;;;;5055674;28;20460;-49
2022/06/14 02:11:26;;;;;;;3.83;2.13;;;11.10;83.20;;;;;;5055491;28;20075;-48
2022/06/14 02:13:57;;;;;;;6.47;2.55;;;11.10;83.60;;;;;;5055081;28;20053;-49
2022/06/14 02:16:36;;;;;;;7.82;3.08;;;11.10;83.50;;;;;;5055734;28;20022;-49
2022/06/14 02:19:40;;;;;;;5.97;3.00;;;11.10;83.60;;;;;;5055452;28;20079;-49
2022/06/14 02:22:17;;;;;;;3.80;2.47;;;11.20;83.50;;;;;;5054752;28;20091;-49
2022/06/14 02:25:07;;;;;;;4.43;2.55;;;11.30;83.20;;;;;;5055340;28;20491;-48
2022/06/14 02:27:56;;;;;;;7.85;2.72;;;11.40;82.70;;;;;;5054501;28;20045;-48
2022/06/14 02:30:28;;;;;;;5.40;2.90;;;11.30;82.50;;;;;;5055248;28;20040;-50
2022/06/14 02:33:05;;;;;;;3.67;2.65;;;11.40;82.00;;;;;;5055409;28;20111;-48
2022/06/14 02:35:50;;;;;;;5.53;2.70;;;11.50;81.90;;;;;;5054998;28;20025;-48
2022/06/14 02:38:28;;;;;;;9.20;3.33;;;11.50;81.80;;;;;;5054988;28;20032;-47
2022/06/14 02:41:07;;;;;;;9.73;2.63;;;11.30;82.20;;;;;;5054794;28;20021;-48
2022/06/14 02:43:39;;;;;;;8.60;2.50;;;11.30;82.80;;;;;;5054959;28;20116;-49
2022/06/14 02:46:20;;;;;;;8.20;3.60;;;11.40;82.30;;;;;;5054986;28;20037;-48
2022/06/14 02:48:57;;;;;;;8.75;3.30;;;11.30;82.40;;;;;;5054744;28;20498;-49
2022/06/14 02:51:33;;;;;;;10.40;4.00;;;11.30;82.90;;;;;;5053290;28;20020;-49
2022/06/14 02:54:17;;;;;;;8.00;4.28;;;11.40;82.60;;;;;;5054859;28;20056;-48
2022/06/14 20:17:04;;;;;;;3.75;1.83;;;18.70;52.60;;;;;;5132200;27;20096;-37
2022/06/14 20:19:38;;;;;;;7.30;1.70;;;18.70;52.70;;;;;;5131406;27;20042;-38
2022/06/14 20:22:07;;;;;;;3.65;1.77;;;18.70;52.70;;;;;;5131787;27;20055;-38
2022/06/14 20:24:33;;;;;;;9.57;2.10;;;18.70;52.50;;;;;;5112947;28;20027;-37
2022/06/14 20:27:18;;;;;;;4.60;2.00;;;18.70;52.50;;;;;;5131675;27;20038;-39
2022/06/14 20:29:51;;;;;;;8.98;2.13;;;18.60;52.70;;;;;;5130097;28;20110;-37
2022/06/14 20:32:17;;;;;;;4.38;1.60;;;18.50;52.90;;;;;;5131504;27;20114;-38
2022/06/14 20:34:55;;;;;;;7.45;2.03;;;18.50;52.80;;;;;;5131375;27;20459;-38
2022/06/14 20:37:21;;;;;;;8.15;3.10;;;18.50;52.90;;;;;;5130906;27;20019;-37
2022/06/14 20:39:58;;;;;;;6.53;1.85;;;18.40;53.20;;;;;;5129949;28;20030;-38
2022/06/14 20:42:31;;;;;;;13.13;1.80;;;18.30;53.30;;;;;;5130129;27;20031;-38
2022/06/14 20:45:09;;;;;;;7.28;2.05;;;18.30;53.40;;;;;;5129842;28;20270;-37
2022/06/14 20:47:37;;;;;;;5.60;1.35;;;18.30;53.50;;;;;;5129753;28;20027;-38
2022/06/14 20:50:13;;;;;;;7.10;2.15;;;18.30;53.70;;;;;;5129974;28;20106;-39
2022/06/14 20:52:40;;;;;;;6.90;2.85;;;18.30;53.80;;;;;;5131018;27;20028;-37
2022/06/14 20:55:07;;;;;;;4.20;1.70;;;18.20;54.00;;;;;;5130709;27;20027;-38
2022/06/14 20:57:41;;;;;;;6.68;1.95;;;18.10;54.20;;;;;;5130854;27;20085;-37
2022/06/14 21:00:09;;;;;;;6.13;1.55;;;18.00;54.40;;;;;;5131504;27;20065;-38
2022/06/14 21:02:36;;;;;;;8.65;2.58;;;18.00;54.60;;;;;;5129675;28;20421;-37
2022/06/14 21:05:03;;;;;;;7.28;2.15;;;18.00;54.80;;;;;;5130754;27;20027;-38
2022/06/14 21:07:30;;;;;;;5.38;1.65;;;17.90;54.90;;;;;;5131118;27;20114;-38
2022/06/14 21:10:03;;;;;;;5.45;2.03;;;17.90;55.10;;;;;;5130864;27;20382;-38
2022/06/14 21:12:40;;;;;;;4.75;2.28;;;17.80;55.20;;;;;;5130776;27;20538;-38
2022/06/14 21:15:14;;;;;;;3.70;1.90;;;17.80;55.40;;;;;;5130140;27;20043;-38
2022/06/14 21:17:41;;;;;;;3.00;1.55;;;17.80;55.60;;;;;;5129047;28;20471;-38
2022/06/14 21:20:12;;;;;;;3.95;1.88;;;17.70;55.80;;;;;;5130271;27;20019;-38
2022/06/14 21:22:43;;;;;;;4.60;1.55;;;17.60;56.20;;;;;;5130628;27;20110;-37
2022/06/14 21:25:10;;;;;;;5.25;1.65;;;17.60;56.40;;;;;;5130163;27;20030;-37
2022/06/14 21:27:38;;;;;;;8.73;2.65;;;17.60;56.50;;;;;;5118469;27;20036;-37
2022/06/14 21:30:22;;;;;;;4.70;2.13;;;17.50;56.90;;;;;;5115288;28;20031;-36
2022/06/14 21:32:48;;;;;;;5.93;1.73;;;17.50;57.00;;;;;;5116423;28;20059;-38
2022/06/14 21:35:16;;;;;;;7.65;2.08;;;17.50;57.10;;;;;;5114968;28;20051;-39
2022/06/14 21:37:49;;;;;;;5.28;1.70;;;17.40;57.30;;;;;;5116172;28;20475;-37
2022/06/14 21:40:35;;;;;;;7.43;2.38;;;17.40;57.60;;;;;;5116717;28;20093;-37
2022/06/14 21:43:04;;;;;;;5.45;2.05;;;17.40;57.70;;;;;;5116854;28;20023;-38
2022/06/14 21:45:32;;;;;;;5.57;1.63;;;17.30;58.00;;;;;;5116474;27;20027;-38
2022/06/14 21:48:21;;;;;;;6.50;1.90;;;17.30;58.10;;;;;;5116483;28;20031;-37
2022/06/14 21:50:56;;;;;;;9.32;2.03;;;17.30;58.30;;;;;;5116030;28;20077;-37
2022/06/14 21:53:26;;;;;;;6.93;2.13;;;17.30;58.60;;;;;;5116515;28;20111;-36
2022/06/14 21:55:59;;;;;;;6.25;1.50;;;17.30;58.60;;;;;;5115978;28;20368;-38
2022/06/14 21:58:30;;;;;;;9.40;2.72;;;17.20;58.80;;;;;;5115812;28;20036;-37
2022/06/14 22:00:57;;;;;;;10.70;2.25;;;17.10;59.00;;;;;;5116094;28;20471;-44
2022/06/14 22:03:25;;;;;;;3.95;1.65;;;17.10;59.30;;;;;;5116100;28;20406;-38
2022/06/14 22:05:53;;;;;;;6.80;2.35;;;17.00;59.40;;;;;;5115778;28;20027;-38
2022/06/14 22:08:18;;;;;;;6.07;2.47;;;17.00;59.60;;;;;;5116631;28;20031;-37
2022/06/14 22:10:45;;;;;;;8.38;2.97;;;16.90;59.80;;;;;;5114553;28;20023;-36
2022/06/14 22:13:17;;;;;;;9.73;4.05;;;16.90;59.90;;;;;;5117625;28;20030;-37
2022/06/14 22:15:43;;;;;;;4.82;1.90;;;16.80;60.10;;;;;;5115483;28;20044;-37
2022/06/14 22:18:12;;;;;;;4.28;1.42;;;16.80;60.10;;;;;;5115949;28;20019;-37
2022/06/14 22:20:38;;;;;;;9.80;2.43;;;16.80;60.20;;;;;;5115623;28;20027;-36
2022/06/14 22:23:04;;;;;;;3.03;1.63;;;16.80;60.50;;;;;;5115846;28;20058;-37
2022/06/14 22:25:30;;;;;;;8.73;2.15;;;16.80;60.60;;;;;;5115867;28;20102;-36
2022/06/14 22:27:55;;;;;;;8.82;2.17;;;16.80;60.70;;;;;;5115627;28;20032;-36
2022/06/14 22:30:27;;;;;;;3.17;1.85;;;16.70;60.90;;;;;;5115734;28;20045;-37
2022/06/14 22:32:54;;;;;;;10.57;2.90;;;16.60;61.20;;;;;;5114160;28;20020;-36
2022/06/14 22:35:20;;;;;;;5.78;2.38;;;16.70;61.10;;;;;;5114057;28;20023;-36
2022/06/14 22:37:45;;;;;;;6.28;2.05;;;16.70;61.10;;;;;;5114596;28;20011;-37
2022/06/14 22:40:13;;;;;;;5.30;1.92;;;16.60;61.30;;;;;;5115141;28;20375;-37
2022/06/14 22:42:41;;;;;;;11.00;2.15;;;16.50;61.60;;;;;;5115294;28;20030;-37
2022/06/14 22:45:28;;;;;;;8.25;2.83;;;16.40;61.90;;;;;;5115080;28;20016;-37
2022/06/14 22:47:54;;;;;;;6.75;1.92;;;16.50;61.90;;;;;;5115451;28;20028;-37
2022/06/14 22:50:22;;;;;;;6.00;1.85;;;16.50;61.60;;;;;;5115133;28;20035;-37
2022/06/14 22:52:48;;;;;;;5.55;1.88;;;16.40;62.10;;;;;;5115215;28;20023;-37
2022/06/14 22:55:19;;;;;;;6.07;2.08;;;16.40;62.20;;;;;;5114981;28;20030;-37
2022/06/14 22:57:50;;;;;;;5.55;2.85;;;16.30;62.40;;;;;;5113572;28;20020;-37
2022/06/14 23:00:17;;;;;;;2.63;1.73;;;16.20;62.60;;;;;;5114815;28;20020;-37
2022/06/14 23:02:42;;;;;;;6.45;1.85;;;16.20;62.80;;;;;;5115370;28;20371;-50
2022/06/14 23:05:08;;;;;;;8.05;2.00;;;16.30;62.80;;;;;;5115006;28;20038;-37
2022/06/14 23:07:34;;;;;;;7.18;2.33;;;16.20;62.80;;;;;;5114639;28;20051;-39
2022/06/14 23:10:00;;;;;;;3.13;1.70;;;16.20;62.80;;;;;;5114544;28;20065;-37
2022/06/14 23:12:25;;;;;;;4.90;1.73;;;16.20;62.90;;;;;;5114475;28;20462;-37
2022/06/14 23:14:51;;;;;;;8.70;2.35;;;16.10;63.00;;;;;;5114575;28;20043;-37
2022/06/14 23:17:17;;;;;;;3.08;1.85;;;16.10;63.00;;;;;;5114728;28;20383;-37
2022/06/14 23:19:42;;;;;;;5.72;1.70;;;16.10;63.10;;;;;;5114490;28;20088;-37
2022/06/14 23:22:08;;;;;;;3.95;1.77;;;16.10;63.30;;;;;;5114586;28;20577;-37
2022/06/14 23:24:34;;;;;;;6.05;1.73;;;16.00;63.30;;;;;;5114307;28;20028;-37
2022/06/14 23:27:00;;;;;;;7.60;2.35;;;16.00;63.50;;;;;;5114294;28;20087;-37
2022/06/14 23:29:25;;;;;;;3.40;1.77;;;16.00;63.50;;;;;;5114249;28;20028;-37
2022/06/14 23:31:51;;;;;;;10.77;2.53;;;16.00;63.60;;;;;;5114536;28;20023;-36
2022/06/14 23:34:17;;;;;;;4.45;2.28;;;16.00;63.80;;;;;;5114104;28;20027;-36
2022/06/14 23:36:43;;;;;;;6.65;2.17;;;15.90;64.00;;;;;;5114602;28;20020;-37
2022/06/14 23:39:09;;;;;;;7.00;1.90;;;15.80;64.20;;;;;;5114182;28;20020;-37
2022/06/14 23:41:36;;;;;;;5.75;2.20;;;15.80;64.50;;;;;;5114427;27;20024;-37
2022/06/14 23:44:02;;;;;;;9.43;1.70;;;15.70;64.80;;;;;;5114423;28;20016;-38
2022/06/14 23:46:29;;;;;;;8.75;2.28;;;15.70;64.80;;;;;;5113961;28;20060;-38
2022/06/14 23:48:55;;;;;;;6.35;2.22;;;15.70;65.00;;;;;;5114117;28;20482;-38
2022/06/14 23:51:20;;;;;;;7.53;2.47;;;15.60;65.20;;;;;;5113802;28;20462;-37
2022/06/14 23:53:46;;;;;;;6.03;1.88;;;15.70;65.10;;;;;;5113922;28;20023;-37
2022/06/14 23:56:14;;;;;;;6.78;2.20;;;15.60;65.10;;;;;;5114094;28;20064;-37
2022/06/14 23:58:40;;;;;;;6.13;2.38;;;15.60;65.10;;;;;;5114098;28;20398;-37
